sensor_id;sensor_type;location;lat;lon;timestamp;temperature;humidity
70851;DHT22;58475;49.662;9.636;2022-12-07T00:01:07;2.47;93.31
70851;DHT22;58475;49.662;9.636;2022-12-07T00:03:33;2.37;93.86
70851;DHT22;58475;49.662;9.636;2022-12-07T00:05:59;2.43;93.74
70851;DHT22;58475;49.662;9.636;2022-12-07T00:08:25;2.37;93.71
70851;DHT22;58475;49.662;9.636;2022-12-07T00:10:51;2.39;93.74
70851;DHT22;58475;49.662;9.636;2022-12-07T00:13:17;2.42;93.40
70851;DHT22;58475;49.662;9.636;2022-12-07T00:15:42;2.47;93.29
70851;DHT22;58475;49.662;9.636;2022-12-07T00:18:08;2.39;94.00
70851;DHT22;58475;49.662;9.636;2022-12-07T00:20:33;2.04;94.47
70851;DHT22;58475;49.662;9.636;2022-12-07T00:22:59;1.89;95.07
70851;DHT22;58475;49.662;9.636;2022-12-07T00:25:25;1.74;95.62
70851;DHT22;58475;49.662;9.636;2022-12-07T00:27:52;1.75;95.88
70851;DHT22;58475;49.662;9.636;2022-12-07T00:30:18;1.71;96.11
70851;DHT22;58475;49.662;9.636;2022-12-07T00:32:44;1.71;96.14
70851;DHT22;58475;49.662;9.636;2022-12-07T00:35:09;1.65;96.49
70851;DHT22;58475;49.662;9.636;2022-12-07T00:37:35;1.68;96.52
70851;DHT22;58475;49.662;9.636;2022-12-07T00:40:00;1.79;96.50
70851;DHT22;58475;49.662;9.636;2022-12-07T00:42:26;1.74;96.49
70851;DHT22;58475;49.662;9.636;2022-12-07T00:44:51;1.78;96.63
70851;DHT22;58475;49.662;9.636;2022-12-07T00:47:17;1.78;96.57
70851;DHT22;58475;49.662;9.636;2022-12-07T00:49:42;1.79;96.36
70851;DHT22;58475;49.662;9.636;2022-12-07T00:52:08;1.75;96.46
70851;DHT22;58475;49.662;9.636;2022-12-07T00:54:33;1.68;96.79
70851;DHT22;58475;49.662;9.636;2022-12-07T00:56:59;1.71;96.98
70851;DHT22;58475;49.662;9.636;2022-12-07T00:59:24;1.84;96.49
70851;DHT22;58475;49.662;9.636;2022-12-07T01:01:49;1.70;96.57
70851;DHT22;58475;49.662;9.636;2022-12-07T01:04:15;1.67;96.84
70851;DHT22;58475;49.662;9.636;2022-12-07T01:06:41;1.54;96.78
70851;DHT22;58475;49.662;9.636;2022-12-07T01:09:06;1.50;96.96
70851;DHT22;58475;49.662;9.636;2022-12-07T01:11:32;1.54;96.98
70851;DHT22;58475;49.662;9.636;2022-12-07T01:13:58;1.50;96.77
70851;DHT22;58475;49.662;9.636;2022-12-07T01:16:26;1.43;97.22
70851;DHT22;58475;49.662;9.636;2022-12-07T01:18:53;1.46;97.08
70851;DHT22;58475;49.662;9.636;2022-12-07T01:21:22;1.46;96.91
70851;DHT22;58475;49.662;9.636;2022-12-07T01:23:48;1.54;96.84
70851;DHT22;58475;49.662;9.636;2022-12-07T01:26:16;1.60;96.76
70851;DHT22;58475;49.662;9.636;2022-12-07T01:28:42;1.61;96.93
70851;DHT22;58475;49.662;9.636;2022-12-07T01:31:13;1.61;97.20
70851;DHT22;58475;49.662;9.636;2022-12-07T01:33:40;1.58;97.43
70851;DHT22;58475;49.662;9.636;2022-12-07T01:36:20;1.64;97.23
70851;DHT22;58475;49.662;9.636;2022-12-07T01:38:47;1.63;96.79
70851;DHT22;58475;49.662;9.636;2022-12-07T01:41:13;1.65;96.84
70851;DHT22;58475;49.662;9.636;2022-12-07T01:44:31;1.73;96.45
70851;DHT22;58475;49.662;9.636;2022-12-07T01:46:55;1.65;96.78
70851;DHT22;58475;49.662;9.636;2022-12-07T01:49:54;1.61;96.99
70851;DHT22;58475;49.662;9.636;2022-12-07T01:52:28;1.51;97.29
70851;DHT22;58475;49.662;9.636;2022-12-07T01:54:59;1.33;97.84
70851;DHT22;58475;49.662;9.636;2022-12-07T01:57:25;1.33;97.70
70851;DHT22;58475;49.662;9.636;2022-12-07T01:59:51;1.44;97.49
70851;DHT22;58475;49.662;9.636;2022-12-07T02:02:23;1.51;97.52
70851;DHT22;58475;49.662;9.636;2022-12-07T02:04:52;1.50;97.44
70851;DHT22;58475;49.662;9.636;2022-12-07T02:07:19;1.43;97.54
70851;DHT22;58475;49.662;9.636;2022-12-07T02:09:45;1.48;97.81
70851;DHT22;58475;49.662;9.636;2022-12-07T02:12:10;1.63;97.10
70851;DHT22;58475;49.662;9.636;2022-12-07T02:14:36;1.65;96.98
70851;DHT22;58475;49.662;9.636;2022-12-07T02:35:22;1.64;97.89
70851;DHT22;58475;49.662;9.636;2022-12-07T02:38:25;1.60;97.80
70851;DHT22;58475;49.662;9.636;2022-12-07T02:41:03;1.61;97.95
70851;DHT22;58475;49.662;9.636;2022-12-07T02:43:44;1.61;97.94
70851;DHT22;58475;49.662;9.636;2022-12-07T02:46:14;1.55;98.00
70851;DHT22;58475;49.662;9.636;2022-12-07T02:48:43;1.60;97.92
70851;DHT22;58475;49.662;9.636;2022-12-07T02:51:08;1.68;97.27
70851;DHT22;58475;49.662;9.636;2022-12-07T02:53:37;1.68;97.33
70851;DHT22;58475;49.662;9.636;2022-12-07T03:02:28;1.86;96.23
70851;DHT22;58475;49.662;9.636;2022-12-07T03:13:11;1.71;97.37
70851;DHT22;58475;49.662;9.636;2022-12-07T03:18:42;1.79;97.12
70851;DHT22;58475;49.662;9.636;2022-12-07T03:21:14;1.86;96.55
70851;DHT22;58475;49.662;9.636;2022-12-07T03:23:42;1.82;96.78
70851;DHT22;58475;49.662;9.636;2022-12-07T03:26:13;1.82;96.81
70851;DHT22;58475;49.662;9.636;2022-12-07T03:28:44;1.97;96.05
70851;DHT22;58475;49.662;9.636;2022-12-07T03:31:35;2.04;95.59
70851;DHT22;58475;49.662;9.636;2022-12-07T03:37:20;1.98;96.35
70851;DHT22;58475;49.662;9.636;2022-12-07T03:40:10;1.95;96.09
70851;DHT22;58475;49.662;9.636;2022-12-07T03:42:38;1.98;96.45
70851;DHT22;58475;49.662;9.636;2022-12-07T03:45:04;1.98;96.25
70851;DHT22;58475;49.662;9.636;2022-12-07T03:47:33;1.99;96.30
70851;DHT22;58475;49.662;9.636;2022-12-07T03:52:47;1.97;96.50
70851;DHT22;58475;49.662;9.636;2022-12-07T03:55:26;2.02;96.59
70851;DHT22;58475;49.662;9.636;2022-12-07T03:57:56;1.95;96.60
70851;DHT22;58475;49.662;9.636;2022-12-07T04:00:23;1.91;97.14
70851;DHT22;58475;49.662;9.636;2022-12-07T04:02:52;1.88;97.19
70851;DHT22;58475;49.662;9.636;2022-12-07T04:05:18;1.79;97.67
70851;DHT22;58475;49.662;9.636;2022-12-07T04:07:43;1.84;97.19
70851;DHT22;58475;49.662;9.636;2022-12-07T04:10:10;1.81;97.23
70851;DHT22;58475;49.662;9.636;2022-12-07T04:12:35;1.81;97.53
70851;DHT22;58475;49.662;9.636;2022-12-07T04:15:01;1.79;97.62
70851;DHT22;58475;49.662;9.636;2022-12-07T04:17:26;1.85;97.27
70851;DHT22;58475;49.662;9.636;2022-12-07T04:19:52;1.88;97.23
70851;DHT22;58475;49.662;9.636;2022-12-07T04:22:17;1.85;97.38
70851;DHT22;58475;49.662;9.636;2022-12-07T04:24:42;1.84;97.83
70851;DHT22;58475;49.662;9.636;2022-12-07T04:27:08;1.94;97.26
70851;DHT22;58475;49.662;9.636;2022-12-07T04:29:33;1.95;96.71
70851;DHT22;58475;49.662;9.636;2022-12-07T04:31:59;1.98;96.95
70851;DHT22;58475;49.662;9.636;2022-12-07T04:34:24;1.98;96.77
70851;DHT22;58475;49.662;9.636;2022-12-07T04:36:50;1.99;97.25
70851;DHT22;58475;49.662;9.636;2022-12-07T04:41:52;2.01;97.86
70851;DHT22;58475;49.662;9.636;2022-12-07T04:44:18;1.97;98.41
70851;DHT22;58475;49.662;9.636;2022-12-07T04:46:44;1.94;98.33
70851;DHT22;58475;49.662;9.636;2022-12-07T04:49:11;1.97;98.30
70851;DHT22;58475;49.662;9.636;2022-12-07T04:51:36;1.92;98.44
70851;DHT22;58475;49.662;9.636;2022-12-07T04:54:02;1.99;97.86
70851;DHT22;58475;49.662;9.636;2022-12-07T04:56:31;2.01;97.74
70851;DHT22;58475;49.662;9.636;2022-12-07T04:59:00;1.99;97.80
70851;DHT22;58475;49.662;9.636;2022-12-07T05:01:26;2.06;97.19
70851;DHT22;58475;49.662;9.636;2022-12-07T05:03:52;2.15;96.92
70851;DHT22;58475;49.662;9.636;2022-12-07T05:06:18;2.15;96.95
70851;DHT22;58475;49.662;9.636;2022-12-07T05:08:44;2.13;96.97
70851;DHT22;58475;49.662;9.636;2022-12-07T05:11:10;2.21;97.11
70851;DHT22;58475;49.662;9.636;2022-12-07T05:13:56;2.18;97.10
70851;DHT22;58475;49.662;9.636;2022-12-07T05:16:22;2.19;97.34
70851;DHT22;58475;49.662;9.636;2022-12-07T05:18:47;2.21;97.00
70851;DHT22;58475;49.662;9.636;2022-12-07T05:21:13;2.28;96.65
70851;DHT22;58475;49.662;9.636;2022-12-07T05:23:39;2.28;96.67
70851;DHT22;58475;49.662;9.636;2022-12-07T05:26:04;2.28;96.62
70851;DHT22;58475;49.662;9.636;2022-12-07T05:28:30;2.19;97.25
70851;DHT22;58475;49.662;9.636;2022-12-07T05:30:55;2.21;97.12
70851;DHT22;58475;49.662;9.636;2022-12-07T05:33:21;2.26;96.98
70851;DHT22;58475;49.662;9.636;2022-12-07T05:35:46;2.33;97.09
70851;DHT22;58475;49.662;9.636;2022-12-07T05:38:12;2.28;96.50
70851;DHT22;58475;49.662;9.636;2022-12-07T05:40:37;2.25;96.56
70851;DHT22;58475;49.662;9.636;2022-12-07T05:43:02;2.25;96.69
70851;DHT22;58475;49.662;9.636;2022-12-07T05:45:28;2.23;97.10
70851;DHT22;58475;49.662;9.636;2022-12-07T05:47:53;2.21;97.31
70851;DHT22;58475;49.662;9.636;2022-12-07T05:50:19;2.16;97.73
70851;DHT22;58475;49.662;9.636;2022-12-07T05:52:58;2.16;97.96
70851;DHT22;58475;49.662;9.636;2022-12-07T05:55:24;2.15;98.73
70851;DHT22;58475;49.662;9.636;2022-12-07T05:57:49;2.13;98.52
70851;DHT22;58475;49.662;9.636;2022-12-07T06:00:33;2.11;98.77
70851;DHT22;58475;49.662;9.636;2022-12-07T06:02:59;2.13;98.65
70851;DHT22;58475;49.662;9.636;2022-12-07T06:05:24;2.09;98.98
70851;DHT22;58475;49.662;9.636;2022-12-07T06:07:50;2.11;98.58
70851;DHT22;58475;49.662;9.636;2022-12-07T06:10:15;2.22;98.08
70851;DHT22;58475;49.662;9.636;2022-12-07T06:12:41;2.15;99.01
70851;DHT22;58475;49.662;9.636;2022-12-07T06:15:09;2.12;98.66
70851;DHT22;58475;49.662;9.636;2022-12-07T06:17:36;2.15;98.96
70851;DHT22;58475;49.662;9.636;2022-12-07T06:20:03;2.18;98.35
70851;DHT22;58475;49.662;9.636;2022-12-07T06:22:28;2.16;98.27
70851;DHT22;58475;49.662;9.636;2022-12-07T06:24:54;2.22;97.99
70851;DHT22;58475;49.662;9.636;2022-12-07T06:27:20;2.22;98.73
70851;DHT22;58475;49.662;9.636;2022-12-07T06:29:45;2.19;98.91
70851;DHT22;58475;49.662;9.636;2022-12-07T06:32:11;2.28;98.06
70851;DHT22;58475;49.662;9.636;2022-12-07T06:34:37;2.37;97.43
70851;DHT22;58475;49.662;9.636;2022-12-07T06:37:02;2.40;97.37
70851;DHT22;58475;49.662;9.636;2022-12-07T06:39:29;2.39;96.82
70851;DHT22;58475;49.662;9.636;2022-12-07T06:41:55;2.44;96.67
70851;DHT22;58475;49.662;9.636;2022-12-07T06:44:22;2.44;96.42
70851;DHT22;58475;49.662;9.636;2022-12-07T06:46:49;2.53;96.38
70851;DHT22;58475;49.662;9.636;2022-12-07T06:49:15;2.46;96.88
70851;DHT22;58475;49.662;9.636;2022-12-07T06:51:40;2.49;97.38
70851;DHT22;58475;49.662;9.636;2022-12-07T06:54:11;2.56;96.17
70851;DHT22;58475;49.662;9.636;2022-12-07T06:56:37;2.56;96.11
70851;DHT22;58475;49.662;9.636;2022-12-07T06:59:03;2.58;96.16
70851;DHT22;58475;49.662;9.636;2022-12-07T07:01:29;2.50;96.50
70851;DHT22;58475;49.662;9.636;2022-12-07T07:03:54;2.61;95.88
70851;DHT22;58475;49.662;9.636;2022-12-07T07:06:20;2.57;96.01
70851;DHT22;58475;49.662;9.636;2022-12-07T07:08:45;2.57;96.26
70851;DHT22;58475;49.662;9.636;2022-12-07T07:11:11;2.58;96.44
70851;DHT22;58475;49.662;9.636;2022-12-07T07:13:37;2.56;97.01
70851;DHT22;58475;49.662;9.636;2022-12-07T07:16:02;2.60;96.37
70851;DHT22;58475;49.662;9.636;2022-12-07T07:18:28;2.60;96.56
70851;DHT22;58475;49.662;9.636;2022-12-07T07:20:54;2.56;96.50
70851;DHT22;58475;49.662;9.636;2022-12-07T07:23:20;2.56;96.43
70851;DHT22;58475;49.662;9.636;2022-12-07T07:25:46;2.63;96.01
70851;DHT22;58475;49.662;9.636;2022-12-07T07:28:12;2.64;96.85
70851;DHT22;58475;49.662;9.636;2022-12-07T07:30:38;2.73;95.92
70851;DHT22;58475;49.662;9.636;2022-12-07T07:33:04;2.73;95.60
70851;DHT22;58475;49.662;9.636;2022-12-07T07:35:32;2.67;97.25
70851;DHT22;58475;49.662;9.636;2022-12-07T07:37:59;2.74;96.43
70851;DHT22;58475;49.662;9.636;2022-12-07T07:40:25;2.81;96.10
70851;DHT22;58475;49.662;9.636;2022-12-07T07:42:52;2.74;96.40
70851;DHT22;58475;49.662;9.636;2022-12-07T07:45:19;2.77;96.06
70851;DHT22;58475;49.662;9.636;2022-12-07T07:47:45;2.81;96.33
70851;DHT22;58475;49.662;9.636;2022-12-07T07:50:10;2.81;96.09
70851;DHT22;58475;49.662;9.636;2022-12-07T07:52:36;2.84;96.11
70851;DHT22;58475;49.662;9.636;2022-12-07T07:55:02;2.83;95.98
70851;DHT22;58475;49.662;9.636;2022-12-07T07:57:27;2.88;96.21
70851;DHT22;58475;49.662;9.636;2022-12-07T07:59:53;2.94;96.13
70851;DHT22;58475;49.662;9.636;2022-12-07T08:02:20;2.95;96.18
70851;DHT22;58475;49.662;9.636;2022-12-07T08:04:46;2.97;95.90
70851;DHT22;58475;49.662;9.636;2022-12-07T08:07:12;2.95;96.24
70851;DHT22;58475;49.662;9.636;2022-12-07T08:09:38;3.09;96.18
70851;DHT22;58475;49.662;9.636;2022-12-07T08:12:04;3.11;95.98
70851;DHT22;58475;49.662;9.636;2022-12-07T08:14:30;3.14;96.19
70851;DHT22;58475;49.662;9.636;2022-12-07T08:16:56;3.12;95.97
70851;DHT22;58475;49.662;9.636;2022-12-07T08:19:22;3.22;96.20
70851;DHT22;58475;49.662;9.636;2022-12-07T08:21:48;3.39;95.26
70851;DHT22;58475;49.662;9.636;2022-12-07T08:24:17;3.40;94.64
70851;DHT22;58475;49.662;9.636;2022-12-07T08:26:43;3.43;94.50
70851;DHT22;58475;49.662;9.636;2022-12-07T08:29:08;3.45;94.28
70851;DHT22;58475;49.662;9.636;2022-12-07T08:31:34;3.55;94.30
70851;DHT22;58475;49.662;9.636;2022-12-07T08:33:59;3.56;94.45
70851;DHT22;58475;49.662;9.636;2022-12-07T08:36:25;3.62;94.12
70851;DHT22;58475;49.662;9.636;2022-12-07T08:38:51;3.63;94.19
70851;DHT22;58475;49.662;9.636;2022-12-07T08:41:16;3.77;93.45
70851;DHT22;58475;49.662;9.636;2022-12-07T08:43:42;3.72;93.76
70851;DHT22;58475;49.662;9.636;2022-12-07T08:46:56;3.79;93.85
70851;DHT22;58475;49.662;9.636;2022-12-07T08:49:11;3.73;95.07
70851;DHT22;58475;49.662;9.636;2022-12-07T08:51:37;3.86;93.32
70851;DHT22;58475;49.662;9.636;2022-12-07T08:54:07;3.82;95.50
70851;DHT22;58475;49.662;9.636;2022-12-07T08:56:34;3.76;96.17
70851;DHT22;58475;49.662;9.636;2022-12-07T08:59:01;3.77;96.23
70851;DHT22;58475;49.662;9.636;2022-12-07T09:01:26;3.74;96.40
70851;DHT22;58475;49.662;9.636;2022-12-07T09:03:53;3.93;93.77
70851;DHT22;58475;49.662;9.636;2022-12-07T09:06:18;3.86;92.99
70851;DHT22;58475;49.662;9.636;2022-12-07T09:08:47;3.90;93.34
70851;DHT22;58475;49.662;9.636;2022-12-07T09:11:14;4.00;93.21
70851;DHT22;58475;49.662;9.636;2022-12-07T09:13:39;4.03;93.80
70851;DHT22;58475;49.662;9.636;2022-12-07T09:16:05;4.15;93.18
70851;DHT22;58475;49.662;9.636;2022-12-07T09:18:30;3.98;93.47
70851;DHT22;58475;49.662;9.636;2022-12-07T09:20:56;4.03;94.40
70851;DHT22;58475;49.662;9.636;2022-12-07T09:23:22;4.05;93.74
70851;DHT22;58475;49.662;9.636;2022-12-07T09:25:47;4.08;93.36
70851;DHT22;58475;49.662;9.636;2022-12-07T09:28:13;4.07;93.45
70851;DHT22;58475;49.662;9.636;2022-12-07T09:30:38;4.17;93.71
70851;DHT22;58475;49.662;9.636;2022-12-07T09:33:04;4.11;93.29
70851;DHT22;58475;49.662;9.636;2022-12-07T09:35:29;4.14;93.97
70851;DHT22;58475;49.662;9.636;2022-12-07T09:37:55;4.10;94.03
70851;DHT22;58475;49.662;9.636;2022-12-07T09:40:22;4.07;93.41
70851;DHT22;58475;49.662;9.636;2022-12-07T09:42:51;4.05;94.05
70851;DHT22;58475;49.662;9.636;2022-12-07T09:45:22;4.03;94.30
70851;DHT22;58475;49.662;9.636;2022-12-07T09:47:48;4.08;95.04
70851;DHT22;58475;49.662;9.636;2022-12-07T09:50:18;4.03;94.18
70851;DHT22;58475;49.662;9.636;2022-12-07T09:52:45;4.11;93.95
70851;DHT22;58475;49.662;9.636;2022-12-07T09:55:19;4.05;94.79
70851;DHT22;58475;49.662;9.636;2022-12-07T09:57:46;4.14;94.00
70851;DHT22;58475;49.662;9.636;2022-12-07T10:00:15;4.21;93.52
70851;DHT22;58475;49.662;9.636;2022-12-07T10:02:47;4.40;93.90
70851;DHT22;58475;49.662;9.636;2022-12-07T10:05:20;4.27;93.13
70851;DHT22;58475;49.662;9.636;2022-12-07T10:07:47;4.35;94.43
70851;DHT22;58475;49.662;9.636;2022-12-07T10:10:15;4.38;92.87
70851;DHT22;58475;49.662;9.636;2022-12-07T10:13:04;4.45;92.17
70851;DHT22;58475;49.662;9.636;2022-12-07T10:15:52;4.63;93.02
70851;DHT22;58475;49.662;9.636;2022-12-07T10:24:14;6.36;87.47
70851;DHT22;58475;49.662;9.636;2022-12-07T10:26:53;6.50;86.70
70851;DHT22;58475;49.662;9.636;2022-12-07T10:29:31;6.81;86.75
70851;DHT22;58475;49.662;9.636;2022-12-07T10:32:33;7.02;85.25
70851;DHT22;58475;49.662;9.636;2022-12-07T10:37:45;6.98;85.46
70851;DHT22;58475;49.662;9.636;2022-12-07T10:40:32;6.16;86.42
70851;DHT22;58475;49.662;9.636;2022-12-07T10:45:30;6.16;85.87
70851;DHT22;58475;49.662;9.636;2022-12-07T10:48:07;6.17;86.20
70851;DHT22;58475;49.662;9.636;2022-12-07T10:58:45;5.88;86.61
70851;DHT22;58475;49.662;9.636;2022-12-07T11:01:32;5.66;87.40
70851;DHT22;58475;49.662;9.636;2022-12-07T11:06:48;6.58;84.09
70851;DHT22;58475;49.662;9.636;2022-12-07T11:09:43;6.87;82.78
70851;DHT22;58475;49.662;9.636;2022-12-07T11:17:51;6.75;83.81
70851;DHT22;58475;49.662;9.636;2022-12-07T11:20:41;6.19;84.35
70851;DHT22;58475;49.662;9.636;2022-12-07T11:23:13;6.05;84.53
70851;DHT22;58475;49.662;9.636;2022-12-07T11:32:26;5.72;85.53
70851;DHT22;58475;49.662;9.636;2022-12-07T11:37:41;5.93;85.16
70851;DHT22;58475;49.662;9.636;2022-12-07T11:40:21;6.36;83.81
70851;DHT22;58475;49.662;9.636;2022-12-07T11:43:20;6.75;85.34
70851;DHT22;58475;49.662;9.636;2022-12-07T11:45:58;6.58;83.64
70851;DHT22;58475;49.662;9.636;2022-12-07T11:51:00;6.22;84.33
70851;DHT22;58475;49.662;9.636;2022-12-07T11:56:19;6.10;84.06
70851;DHT22;58475;49.662;9.636;2022-12-07T12:06:27;5.82;85.19
70851;DHT22;58475;49.662;9.636;2022-12-07T12:09:05;5.85;85.71
70851;DHT22;58475;49.662;9.636;2022-12-07T12:19:38;5.82;83.39
70851;DHT22;58475;49.662;9.636;2022-12-07T12:22:13;5.83;85.22
70851;DHT22;58475;49.662;9.636;2022-12-07T12:24:41;6.03;84.55
70851;DHT22;58475;49.662;9.636;2022-12-07T12:27:15;5.98;85.21
70851;DHT22;58475;49.662;9.636;2022-12-07T12:29:42;5.74;84.32
70851;DHT22;58475;49.662;9.636;2022-12-07T12:32:35;5.59;84.74
70851;DHT22;58475;49.662;9.636;2022-12-07T12:35:17;5.72;85.20
70851;DHT22;58475;49.662;9.636;2022-12-07T12:37:46;5.74;84.59
70851;DHT22;58475;49.662;9.636;2022-12-07T12:45:25;5.37;85.61
70851;DHT22;58475;49.662;9.636;2022-12-07T13:01:56;4.99;88.01
70851;DHT22;58475;49.662;9.636;2022-12-07T13:04:39;4.99;89.26
70851;DHT22;58475;49.662;9.636;2022-12-07T13:07:10;5.00;88.90
70851;DHT22;58475;49.662;9.636;2022-12-07T13:09:36;4.83;89.84
70851;DHT22;58475;49.662;9.636;2022-12-07T13:12:14;4.90;90.50
70851;DHT22;58475;49.662;9.636;2022-12-07T13:14:41;4.94;89.74
70851;DHT22;58475;49.662;9.636;2022-12-07T13:17:12;5.01;90.97
70851;DHT22;58475;49.662;9.636;2022-12-07T13:20:01;5.01;90.52
70851;DHT22;58475;49.662;9.636;2022-12-07T13:25:29;5.00;89.96
70851;DHT22;58475;49.662;9.636;2022-12-07T13:28:24;5.03;89.12
70851;DHT22;58475;49.662;9.636;2022-12-07T13:31:00;5.10;89.89
70851;DHT22;58475;49.662;9.636;2022-12-07T13:33:29;5.17;90.97
70851;DHT22;58475;49.662;9.636;2022-12-07T13:35:56;5.22;90.61
70851;DHT22;58475;49.662;9.636;2022-12-07T13:38:31;5.12;89.68
70851;DHT22;58475;49.662;9.636;2022-12-07T13:44:12;5.28;87.50
70851;DHT22;58475;49.662;9.636;2022-12-07T13:49:27;5.07;86.71
70851;DHT22;58475;49.662;9.636;2022-12-07T13:51:53;5.00;88.53
70851;DHT22;58475;49.662;9.636;2022-12-07T13:54:21;5.03;88.92
70851;DHT22;58475;49.662;9.636;2022-12-07T13:56:51;4.97;88.66
70851;DHT22;58475;49.662;9.636;2022-12-07T13:59:22;4.80;91.43
70851;DHT22;58475;49.662;9.636;2022-12-07T14:01:49;4.87;92.08
70851;DHT22;58475;49.662;9.636;2022-12-07T14:04:36;4.75;91.74
70851;DHT22;58475;49.662;9.636;2022-12-07T14:10:05;4.56;94.05
70851;DHT22;58475;49.662;9.636;2022-12-07T14:12:32;4.55;94.61
70851;DHT22;58475;49.662;9.636;2022-12-07T14:15:01;4.49;94.49
70851;DHT22;58475;49.662;9.636;2022-12-07T14:17:27;4.48;94.72
70851;DHT22;58475;49.662;9.636;2022-12-07T14:20:00;4.35;95.37
70851;DHT22;58475;49.662;9.636;2022-12-07T14:22:29;4.46;94.30
70851;DHT22;58475;49.662;9.636;2022-12-07T14:28:00;4.30;94.65
70851;DHT22;58475;49.662;9.636;2022-12-07T14:30:31;4.31;94.45
70851;DHT22;58475;49.662;9.636;2022-12-07T14:33:02;4.28;95.10
70851;DHT22;58475;49.662;9.636;2022-12-07T14:35:29;4.31;95.15
70851;DHT22;58475;49.662;9.636;2022-12-07T14:37:55;4.31;95.17
70851;DHT22;58475;49.662;9.636;2022-12-07T14:40:26;4.27;95.16
70851;DHT22;58475;49.662;9.636;2022-12-07T14:42:59;4.37;95.79
70851;DHT22;58475;49.662;9.636;2022-12-07T14:45:26;4.34;95.67
70851;DHT22;58475;49.662;9.636;2022-12-07T14:47:51;4.30;95.90
70851;DHT22;58475;49.662;9.636;2022-12-07T14:50:18;4.11;96.28
70851;DHT22;58475;49.662;9.636;2022-12-07T14:52:52;4.13;96.84
70851;DHT22;58475;49.662;9.636;2022-12-07T14:55:26;4.14;97.25
70851;DHT22;58475;49.662;9.636;2022-12-07T14:57:52;4.03;96.94
70851;DHT22;58475;49.662;9.636;2022-12-07T15:00:19;3.98;96.46
70851;DHT22;58475;49.662;9.636;2022-12-07T15:02:47;4.10;94.98
70851;DHT22;58475;49.662;9.636;2022-12-07T15:05:13;4.13;94.98
70851;DHT22;58475;49.662;9.636;2022-12-07T15:07:39;4.10;95.69
70851;DHT22;58475;49.662;9.636;2022-12-07T15:10:06;4.04;96.19
70851;DHT22;58475;49.662;9.636;2022-12-07T15:12:35;4.14;95.84
70851;DHT22;58475;49.662;9.636;2022-12-07T15:15:01;4.05;95.41
70851;DHT22;58475;49.662;9.636;2022-12-07T15:17:27;4.04;94.88
70851;DHT22;58475;49.662;9.636;2022-12-07T15:19:52;3.89;95.05
70851;DHT22;58475;49.662;9.636;2022-12-07T15:22:18;3.77;95.25
70851;DHT22;58475;49.662;9.636;2022-12-07T15:24:43;3.66;95.42
70851;DHT22;58475;49.662;9.636;2022-12-07T15:27:08;3.69;93.22
70851;DHT22;58475;49.662;9.636;2022-12-07T15:29:34;3.70;92.80
70851;DHT22;58475;49.662;9.636;2022-12-07T15:31:59;3.79;91.29
70851;DHT22;58475;49.662;9.636;2022-12-07T15:34:26;3.67;92.48
70851;DHT22;58475;49.662;9.636;2022-12-07T15:36:54;3.76;92.23
70851;DHT22;58475;49.662;9.636;2022-12-07T15:39:19;3.73;92.59
70851;DHT22;58475;49.662;9.636;2022-12-07T15:41:45;3.82;92.58
70851;DHT22;58475;49.662;9.636;2022-12-07T15:44:14;3.82;93.19
70851;DHT22;58475;49.662;9.636;2022-12-07T15:46:59;3.73;93.99
70851;DHT22;58475;49.662;9.636;2022-12-07T15:49:26;3.84;92.46
70851;DHT22;58475;49.662;9.636;2022-12-07T15:51:52;3.80;92.98
70851;DHT22;58475;49.662;9.636;2022-12-07T15:54:23;3.76;92.41
70851;DHT22;58475;49.662;9.636;2022-12-07T15:56:49;3.73;92.39
70851;DHT22;58475;49.662;9.636;2022-12-07T15:59:15;3.82;92.01
70851;DHT22;58475;49.662;9.636;2022-12-07T16:01:41;3.83;91.48
70851;DHT22;58475;49.662;9.636;2022-12-07T16:04:07;3.82;91.40
70851;DHT22;58475;49.662;9.636;2022-12-07T16:06:32;3.76;91.41
70851;DHT22;58475;49.662;9.636;2022-12-07T16:08:58;3.69;91.28
70851;DHT22;58475;49.662;9.636;2022-12-07T16:11:24;3.63;91.81
70851;DHT22;58475;49.662;9.636;2022-12-07T16:13:49;3.56;92.25
70851;DHT22;58475;49.662;9.636;2022-12-07T16:16:17;3.56;92.42
70851;DHT22;58475;49.662;9.636;2022-12-07T16:18:44;3.55;92.29
70851;DHT22;58475;49.662;9.636;2022-12-07T16:21:10;3.60;91.84
70851;DHT22;58475;49.662;9.636;2022-12-07T16:23:35;3.63;92.22
70851;DHT22;58475;49.662;9.636;2022-12-07T16:28:31;3.56;92.36
70851;DHT22;58475;49.662;9.636;2022-12-07T16:31:02;3.40;93.10
70851;DHT22;58475;49.662;9.636;2022-12-07T16:33:27;3.39;93.15
70851;DHT22;58475;49.662;9.636;2022-12-07T16:35:53;3.38;92.88
70851;DHT22;58475;49.662;9.636;2022-12-07T16:38:18;3.25;93.90
70851;DHT22;58475;49.662;9.636;2022-12-07T16:40:44;3.14;94.30
70851;DHT22;58475;49.662;9.636;2022-12-07T16:43:11;3.19;93.96
70851;DHT22;58475;49.662;9.636;2022-12-07T16:45:38;3.07;94.18
70851;DHT22;58475;49.662;9.636;2022-12-07T16:48:04;3.01;94.79
70851;DHT22;58475;49.662;9.636;2022-12-07T16:50:29;2.97;94.65
70851;DHT22;58475;49.662;9.636;2022-12-07T16:52:55;2.85;95.16
70851;DHT22;58475;49.662;9.636;2022-12-07T16:55:20;2.72;96.20
70851;DHT22;58475;49.662;9.636;2022-12-07T16:57:46;2.56;96.65
70851;DHT22;58475;49.662;9.636;2022-12-07T17:00:12;2.53;96.72
70851;DHT22;58475;49.662;9.636;2022-12-07T17:02:37;2.46;97.31
70851;DHT22;58475;49.662;9.636;2022-12-07T17:05:03;2.50;97.25
70851;DHT22;58475;49.662;9.636;2022-12-07T17:07:29;2.54;97.52
70851;DHT22;58475;49.662;9.636;2022-12-07T17:09:54;2.57;97.32
70851;DHT22;58475;49.662;9.636;2022-12-07T17:12:19;2.63;97.27
70851;DHT22;58475;49.662;9.636;2022-12-07T17:14:45;2.58;97.40
70851;DHT22;58475;49.662;9.636;2022-12-07T17:17:29;2.53;97.64
70851;DHT22;58475;49.662;9.636;2022-12-07T17:19:55;2.46;97.71
70851;DHT22;58475;49.662;9.636;2022-12-07T17:22:20;2.60;97.27
70851;DHT22;58475;49.662;9.636;2022-12-07T17:24:46;2.74;97.54
70851;DHT22;58475;49.662;9.636;2022-12-07T17:27:11;2.73;97.11
70851;DHT22;58475;49.662;9.636;2022-12-07T17:29:37;2.53;97.77
70851;DHT22;58475;49.662;9.636;2022-12-07T17:32:03;2.64;97.43
70851;DHT22;58475;49.662;9.636;2022-12-07T17:34:28;2.54;98.17
70851;DHT22;58475;49.662;9.636;2022-12-07T17:36:54;2.54;98.32
70851;DHT22;58475;49.662;9.636;2022-12-07T17:39:20;2.56;98.21
70851;DHT22;58475;49.662;9.636;2022-12-07T17:41:46;2.61;98.34
70851;DHT22;58475;49.662;9.636;2022-12-07T17:44:30;2.79;97.81
70851;DHT22;58475;49.662;9.636;2022-12-07T17:46:57;2.80;97.68
70851;DHT22;58475;49.662;9.636;2022-12-07T17:49:24;2.83;97.77
70851;DHT22;58475;49.662;9.636;2022-12-07T17:51:50;2.80;97.45
70851;DHT22;58475;49.662;9.636;2022-12-07T17:54:34;2.74;97.95
70851;DHT22;58475;49.662;9.636;2022-12-07T17:57:00;2.70;98.44
70851;DHT22;58475;49.662;9.636;2022-12-07T17:59:25;2.74;98.29
70851;DHT22;58475;49.662;9.636;2022-12-07T18:01:51;2.76;98.38
70851;DHT22;58475;49.662;9.636;2022-12-07T18:04:16;2.68;98.41
70851;DHT22;58475;49.662;9.636;2022-12-07T18:06:42;2.76;98.49
70851;DHT22;58475;49.662;9.636;2022-12-07T18:09:08;2.80;98.01
70851;DHT22;58475;49.662;9.636;2022-12-07T18:11:35;2.87;98.35
70851;DHT22;58475;49.662;9.636;2022-12-07T18:14:01;2.91;97.91